Time;durP1;ratioP1;P1;durP2;ratioP2;P2;SDS_P1;SDS_P2;PMS_P1;PMS_P2;Temp;Humidity;BMP_temperature;BMP_pressure;BME280_temperature;BME280_humidity;BME280_pressure;Samples;Min_cycle;Max_cycle;Signal;HPM_P1;HPM_P2
2022/02/01 00:00:43;;;;;;;10.40;2.50;;;;;;;5.46;100.00;101728.41;4992025;28;20492;-76
2022/02/01 00:17:00;;;;;;;11.23;2.63;;;;;;;5.27;100.00;101686.72;4993553;28;20506;-76
2022/02/01 00:40:20;;;;;;;13.03;2.57;;;;;;;5.15;100.00;101688.72;4996646;28;20284;-76
2022/02/01 00:42:45;;;;;;;9.27;2.70;;;;;;;5.39;100.00;101714.00;4988817;28;20924;-76
2022/02/01 00:45:10;;;;;;;19.73;3.13;;;;;;;5.30;100.00;101691.75;4988872;28;20556;-76
2022/02/01 00:47:36;;;;;;;11.87;2.63;;;;;;;5.53;100.00;101686.94;4981002;28;20210;-76
2022/02/01 00:50:02;;;;;;;15.50;3.10;;;;;;;5.71;100.00;101710.13;4986160;28;20177;-76
2022/02/01 00:52:29;;;;;;;17.40;2.70;;;;;;;5.08;100.00;101670.81;4988644;28;20712;-76
2022/02/01 00:54:54;;;;;;;14.60;2.83;;;;;;;5.36;100.00;101741.72;4978586;28;20551;-76
2022/02/01 00:57:20;;;;;;;18.00;3.20;;;;;;;4.92;100.00;101704.13;4977521;28;20539;-76
2022/02/01 00:59:45;;;;;;;12.33;3.10;;;;;;;4.80;100.00;101699.06;4985295;28;20648;-76
2022/02/01 01:02:11;;;;;;;15.97;3.30;;;;;;;5.52;100.00;101791.69;4990002;28;20220;-76
2022/02/01 01:04:37;;;;;;;11.20;2.83;;;;;;;5.16;100.00;101685.06;4975221;28;20737;-77
2022/02/01 01:07:03;;;;;;;12.70;2.90;;;;;;;5.58;100.00;101761.88;4981042;28;20206;-76
2022/02/01 01:09:29;;;;;;;12.47;2.50;;;;;;;4.70;100.00;101619.34;4991244;28;20468;-77
2022/02/01 01:11:56;;;;;;;14.13;3.40;;;;;;;5.29;100.00;101684.75;4992796;28;20503;-76
2022/02/01 01:15:13;;;;;;;15.20;3.27;;;;;;;5.56;100.00;101750.53;4989481;28;20240;-76
2022/02/01 01:44:57;;;;;;;20.00;3.17;;;;;;;5.49;100.00;101728.09;4987602;28;20419;-76
2022/02/01 01:53:12;;;;;;;16.63;3.03;;;;;;;5.13;100.00;101653.44;4988150;28;20506;-77
2022/02/01 01:55:46;;;;;;;8.40;1.83;;;;;;;5.20;100.00;101629.75;4984368;28;20417;-76
2022/02/01 01:58:12;;;;;;;10.07;2.60;;;;;;;5.48;100.00;101691.84;4990453;28;20970;-76
2022/02/01 02:03:12;;;;;;;15.53;2.70;;;;;;;4.55;100.00;101563.16;4994264;28;20494;-76
2022/02/01 02:05:38;;;;;;;9.47;2.10;;;;;;;5.42;100.00;101655.19;4990760;28;22119;-76
2022/02/01 02:08:04;;;;;;;17.07;2.50;;;;;;;4.94;100.00;101603.78;4980613;28;20665;-76
2022/02/01 02:10:34;;;;;;;12.57;2.10;;;;;;;4.78;100.00;101582.28;4986496;28;20224;-76
2022/02/01 02:14:17;;;;;;;13.40;2.30;;;;;;;5.35;100.00;101644.28;4990708;28;20425;-75
2022/02/01 02:15:56;;;;;;;10.33;2.27;;;;;;;5.40;100.00;101670.44;4988042;28;20449;-76
2022/02/01 02:18:23;;;;;;;11.67;2.77;;;;;;;5.16;100.00;101653.16;5001778;22;20510;-82
2022/02/01 02:20:50;;;;;;;12.20;2.37;;;;;;;5.53;100.00;101675.47;4996891;28;20519;-87
2022/02/01 02:30:00;;;;;;;12.77;2.70;;;;;;;5.25;100.00;101664.75;4995220;28;20444;-84
2022/02/01 02:32:26;;;;;;;10.83;2.27;;;;;;;5.07;100.00;101654.00;4981875;28;21050;-87
2022/02/01 02:34:51;;;;;;;10.47;2.00;;;;;;;5.40;100.00;101665.13;4993815;28;20204;-83
2022/02/01 02:37:18;;;;;;;8.97;1.80;;;;;;;4.84;100.00;101600.31;4994437;28;20571;-84
2022/02/01 02:40:04;;;;;;;12.17;2.97;;;;;;;4.77;100.00;101591.22;4979973;28;20714;-82
2022/02/01 02:45:28;;;;;;;13.90;2.00;;;;;;;5.25;100.00;101643.47;4994624;28;20443;-84
2022/02/01 02:48:31;;;;;;;7.13;1.90;;;;;;;5.33;100.00;101626.78;4995527;28;20453;-88
2022/02/01 02:51:34;;;;;;;11.33;1.90;;;;;;;5.15;100.00;101613.38;4982380;28;20216;-84
2022/02/01 03:04:05;;;;;;;8.30;1.70;;;;;;;4.46;100.00;101529.47;4998495;28;20427;-84
2022/02/01 03:06:31;;;;;;;8.73;1.70;;;;;;;4.92;100.00;101626.19;4976264;28;20845;-87
2022/02/01 03:09:42;;;;;;;7.57;2.37;;;;;;;4.92;100.00;101623.53;4971906;28;23598;-85
2022/02/01 03:21:36;;;;;;;15.40;2.30;;;;;;;4.89;100.00;101619.34;4993140;28;20423;-84
2022/02/01 03:24:05;;;;;;;11.93;3.00;;;;;;;4.86;100.00;101589.53;4972340;28;20441;-83
2022/02/01 03:26:30;;;;;;;4.10;1.30;;;;;;;4.95;100.00;101586.88;4990643;28;20440;-82
2022/02/01 03:28:56;;;;;;;11.73;2.40;;;;;;;3.89;100.00;101439.09;4975917;28;20487;-84
2022/02/01 03:31:21;;;;;;;6.93;2.10;;;;;;;4.54;100.00;101500.34;4988430;28;20669;-82
2022/02/01 03:33:50;;;;;;;8.07;2.40;;;;;;;4.25;100.00;101479.16;4992183;28;20551;-83
2022/02/01 03:36:15;;;;;;;11.50;2.10;;;;;;;4.75;100.00;101532.91;4994065;28;20217;-82
2022/02/01 03:38:41;;;;;;;12.10;2.30;;;;;;;4.36;100.00;101449.78;4968815;28;20456;-88
2022/02/01 03:41:06;;;;;;;12.60;1.87;;;;;;;4.03;100.00;101398.84;4976553;28;20216;-85
2022/02/01 03:43:38;;;;;;;9.50;1.97;;;;;;;4.24;100.00;101442.97;4974813;28;20935;-85
2022/02/01 03:46:03;;;;;;;8.30;1.77;;;;;;;4.44;100.00;101507.53;4974471;28;20186;-85
2022/02/01 03:48:29;;;;;;;11.30;2.10;;;;;;;3.80;100.00;101382.41;4972079;28;20504;-85
2022/02/01 03:50:54;;;;;;;8.83;2.20;;;;;;;4.45;100.00;101469.34;4973020;28;20725;-84
2022/02/01 03:53:20;;;;;;;9.73;2.10;;;;;;;4.89;100.00;101533.41;4990349;28;20189;-84
2022/02/01 03:56:24;;;;;;;6.63;2.00;;;;;;;4.59;100.00;101524.69;4974398;28;20190;-85
2022/02/01 03:58:49;;;;;;;16.50;2.30;;;;;;;4.39;100.00;101518.56;4982595;28;20884;-88
2022/02/01 04:07:59;;;;;;;7.43;2.07;;;;;;;4.45;100.00;101533.09;4996802;28;20493;-87
2022/02/01 04:13:46;;;;;;;9.67;2.03;;;;;;;4.11;100.00;101522.94;4992379;28;20244;-89
2022/02/01 04:16:11;;;;;;;6.63;2.07;;;;;;;3.89;100.00;101462.16;4973820;28;20953;-87
2022/02/01 04:18:37;;;;;;;12.10;1.70;;;;;;;4.42;100.00;101549.31;4975744;28;20241;-88
2022/02/01 04:21:47;;;;;;;10.60;2.00;;;;;;;4.54;100.00;101526.91;4975410;28;20212;-88
2022/02/01 04:24:12;;;;;;;10.83;1.93;;;;;;;4.36;100.00;101531.28;4975554;28;20441;-88
2022/02/01 04:26:38;;;;;;;10.50;1.73;;;;;;;4.38;100.00;101524.84;4982249;28;20437;-88
2022/02/01 04:29:03;;;;;;;10.00;1.90;;;;;;;4.15;100.00;101510.22;4983599;28;20185;-88
2022/02/01 04:31:28;;;;;;;10.50;2.20;;;;;;;4.21;100.00;101510.47;4983562;28;20212;-88
2022/02/01 04:33:54;;;;;;;7.77;2.00;;;;;;;4.15;100.00;101475.69;4979422;28;20240;-87
2022/02/01 04:36:19;;;;;;;5.40;1.77;;;;;;;3.03;100.00;101305.50;4973695;28;20272;-87
2022/02/01 04:38:54;;;;;;;11.13;1.70;;;;;;;3.73;100.00;101425.53;4972084;28;20221;-87
2022/02/01 04:41:19;;;;;;;14.27;2.50;;;;;;;4.33;100.00;101543.03;4995712;28;20172;-81
2022/02/01 04:43:45;;;;;;;6.93;2.07;;;;;;;4.45;100.00;101554.34;4995993;28;20437;-88
2022/02/01 04:46:10;;;;;;;7.10;2.20;;;;;;;4.22;100.00;101562.63;4974038;28;20185;-88
2022/02/01 04:48:36;;;;;;;10.03;1.70;;;;;;;3.60;100.00;101452.34;4975982;28;20204;-82
2022/02/01 04:51:02;;;;;;;6.60;1.57;;;;;;;4.38;100.00;101567.34;4991207;28;20221;-88
2022/02/01 04:53:27;;;;;;;6.10;1.20;;;;;;;3.89;100.00;101464.81;4977944;28;20483;-87
2022/02/01 04:55:54;;;;;;;5.53;1.40;;;;;;;4.00;100.00;101464.66;4977241;28;20204;-85
2022/02/01 04:58:21;;;;;;;4.80;1.37;;;;;;;3.51;100.00;101398.31;4962981;28;20229;-88
2022/02/01 05:00:47;;;;;;;8.20;1.70;;;;;;;4.47;100.00;101528.47;4978752;28;20467;-87
2022/02/01 05:03:12;;;;;;;3.63;1.10;;;;;;;4.34;100.00;101490.75;4981431;28;20473;-88
2022/02/01 05:05:37;;;;;;;7.97;1.67;;;;;;;3.85;100.00;101411.19;4980630;28;20258;-84
2022/02/01 05:08:09;;;;;;;9.43;1.40;;;;;;;4.62;100.00;101494.34;4970139;28;20198;-85
2022/02/01 05:10:36;;;;;;;10.63;1.70;;;;;;;4.34;100.00;101473.00;4988018;28;20251;-83
2022/02/01 05:15:41;;;;;;;8.83;2.80;;;;;;;4.40;100.00;101488.38;4994446;28;20491;-85
2022/02/01 05:18:13;;;;;;;5.33;1.40;;;;;;;4.06;100.00;101438.38;4977253;28;20591;-88
2022/02/01 05:20:52;;;;;;;8.07;2.00;;;;;;;3.67;100.00;101336.72;4982890;28;20424;-85
2022/02/01 05:23:20;;;;;;;6.27;1.43;;;;;;;3.61;100.00;101374.44;4981094;28;20956;-85
2022/02/01 05:25:45;;;;;;;6.50;1.60;;;;;;;4.16;100.00;101425.09;4982109;28;20468;-85
2022/02/01 05:28:11;;;;;;;6.50;1.20;;;;;;;4.05;100.00;101396.91;4994647;28;20610;-83
2022/02/01 05:30:36;;;;;;;10.00;2.07;;;;;;;4.50;100.00;101438.69;4978939;28;20952;-82
2022/02/01 05:33:02;;;;;;;9.40;1.57;;;;;;;3.55;100.00;101245.03;4993309;28;20194;-83
2022/02/01 05:35:28;;;;;;;4.47;1.03;;;;;;;4.43;100.00;101452.72;4993808;28;20200;-87
2022/02/01 05:37:54;;;;;;;6.53;1.37;;;;;;;3.50;100.00;101279.97;4993387;28;20937;-84
2022/02/01 05:40:20;;;;;;;12.87;1.70;;;;;;;4.37;100.00;101408.97;4980352;28;20531;-83
2022/02/01 05:42:57;;;;;;;7.23;1.97;;;;;;;4.10;100.00;101316.81;4979628;28;20192;-83
2022/02/01 05:45:23;;;;;;;9.60;1.60;;;;;;;3.70;100.00;101283.38;4980526;28;20446;-83
2022/02/01 05:47:49;;;;;;;8.70;1.90;;;;;;;4.28;100.00;101376.16;4991335;28;20529;-81
2022/02/01 05:50:15;;;;;;;9.80;2.30;;;;;;;3.91;100.00;101322.19;4997344;28;20436;-77
2022/02/01 05:52:40;;;;;;;9.53;2.70;;;;;;;3.91;100.00;101293.00;4997503;28;20865;-85
2022/02/01 05:55:06;;;;;;;11.63;3.20;;;;;;;4.04;100.00;101338.63;4976271;28;20187;-85
2022/02/01 05:57:31;;;;;;;15.83;3.07;;;;;;;3.83;100.00;101283.91;4993068;28;20209;-86
2022/02/01 05:59:57;;;;;;;5.80;2.13;;;;;;;4.82;100.00;101416.22;4994997;28;20443;-83
2022/02/01 06:02:22;;;;;;;8.97;3.47;;;;;;;4.20;100.00;101314.13;4988805;28;20709;-78
2022/02/01 06:04:48;;;;;;;11.93;2.70;;;;;;;4.73;100.00;101433.03;4978953;28;20209;-75
2022/02/01 06:07:13;;;;;;;16.23;2.90;;;;;;;4.90;100.00;101439.41;4982972;28;20217;-77
2022/02/01 06:09:39;;;;;;;15.73;3.43;;;;;;;3.54;100.00;101264.59;4995768;28;20268;-79
2022/02/01 06:12:05;;;;;;;11.57;2.87;;;;;;;3.63;100.00;101267.22;4987195;28;20212;-85
2022/02/01 06:14:30;;;;;;;18.30;2.87;;;;;;;3.73;100.00;101275.16;4979337;28;20899;-84
2022/02/01 06:16:56;;;;;;;9.97;2.93;;;;;;;4.75;100.00;101429.25;4979940;28;20448;-84
2022/02/01 06:19:21;;;;;;;11.07;2.70;;;;;;;4.84;100.00;101386.84;4992260;28;20812;-82
2022/02/01 06:21:46;;;;;;;11.73;2.93;;;;;;;4.42;100.00;101337.66;4995893;28;20185;-81
2022/02/01 06:24:16;;;;;;;7.90;2.53;;;;;;;4.51;100.00;101351.88;4964493;28;20556;-82
2022/02/01 06:26:42;;;;;;;14.83;2.93;;;;;;;4.42;100.00;101283.69;4972761;28;20181;-81
2022/02/01 06:29:07;;;;;;;10.60;2.60;;;;;;;4.48;100.00;101318.50;4986114;28;21003;-80
2022/02/01 06:31:33;;;;;;;14.40;2.90;;;;;;;3.80;100.00;101220.53;4951933;28;20218;-84
2022/02/01 06:33:58;;;;;;;13.10;3.00;;;;;;;4.08;100.00;101300.22;4973119;28;20188;-80
2022/02/01 06:36:23;;;;;;;12.43;2.70;;;;;;;4.14;100.00;101251.84;4985114;28;20185;-80
2022/02/01 06:38:49;;;;;;;10.80;3.33;;;;;;;4.71;100.00;101366.72;4965780;28;20209;-85
2022/02/01 06:41:14;;;;;;;22.23;4.00;;;;;;;4.63;100.00;101339.22;4981001;28;20181;-80
2022/02/01 06:43:40;;;;;;;16.13;4.00;;;;;;;4.16;100.00;101276.41;4992851;28;20195;-81
2022/02/01 06:46:06;;;;;;;11.67;3.27;;;;;;;5.09;100.00;101409.22;4985027;28;20186;-79
2022/02/01 06:48:32;;;;;;;11.80;3.70;;;;;;;5.05;100.00;101405.19;4971659;28;20214;-80
2022/02/01 06:50:58;;;;;;;12.20;3.50;;;;;;;5.04;100.00;101391.06;4988934;28;20548;-76
2022/02/01 06:53:23;;;;;;;18.73;4.33;;;;;;;4.99;100.00;101382.69;4987851;28;20898;-75
2022/02/01 06:56:05;;;;;;;10.40;3.20;;;;;;;4.82;100.00;101355.06;4986926;28;20200;-80
2022/02/01 06:58:31;;;;;;;12.30;3.67;;;;;;;4.76;100.00;101315.81;4990025;28;20216;-80
2022/02/01 07:00:56;;;;;;;21.27;3.73;;;;;;;5.15;100.00;101335.00;4987171;28;20437;-77
2022/02/01 07:03:22;;;;;;;15.30;3.87;;;;;;;5.05;100.00;101320.94;4988189;28;20193;-79
2022/02/01 07:05:47;;;;;;;19.10;4.67;;;;;;;4.89;100.00;101297.69;4990180;28;20570;-81
2022/02/01 07:08:13;;;;;;;18.27;3.73;;;;;;;5.19;100.00;101327.56;4981091;28;20260;-78
2022/02/01 07:10:39;;;;;;;15.80;3.27;;;;;;;4.54;100.00;101229.38;4988633;28;20189;-83
2022/02/01 07:13:04;;;;;;;9.33;2.90;;;;;;;5.14;100.00;101316.53;4974598;28;20194;-80
2022/02/01 07:15:30;;;;;;;14.57;3.70;;;;;;;5.07;100.00;101271.09;4982089;28;20545;-79
2022/02/01 07:17:56;;;;;;;15.80;4.17;;;;;;;5.19;100.00;101296.47;4987386;28;20209;-79
2022/02/01 07:20:22;;;;;;;10.53;3.40;;;;;;;5.00;100.00;101248.75;4987866;28;20607;-76
2022/02/01 07:22:49;;;;;;;14.03;3.70;;;;;;;4.25;100.00;101131.28;4983837;28;20440;-83
2022/02/01 07:25:31;;;;;;;10.70;3.20;;;;;;;5.10;100.00;101259.34;4985975;28;20444;-80
2022/02/01 07:28:00;;;;;;;9.63;3.33;;;;;;;4.51;100.00;101128.72;4988729;28;20500;-78
2022/02/01 07:30:27;;;;;;;18.50;3.70;;;;;;;5.13;100.00;101259.84;4969064;28;20450;-80
2022/02/01 07:32:57;;;;;;;11.30;2.83;;;;;;;5.12;100.00;101260.00;4987851;28;20892;-75
2022/02/01 07:35:25;;;;;;;9.57;3.33;;;;;;;4.89;100.00;101199.34;4981438;28;20476;-79
2022/02/01 07:37:51;;;;;;;11.80;3.10;;;;;;;5.02;100.00;101222.88;4987990;28;20490;-79
2022/02/01 07:40:17;;;;;;;16.93;3.30;;;;;;;5.08;100.00;101232.88;4986224;28;20524;-80
2022/02/01 07:42:42;;;;;;;16.73;3.27;;;;;;;4.46;100.00;101154.94;4984681;28;20443;-83
2022/02/01 07:45:10;;;;;;;14.60;3.70;;;;;;;4.95;100.00;101216.50;4982791;28;20449;-78
2022/02/01 07:47:36;;;;;;;9.40;2.97;;;;;;;4.94;100.00;101194.38;4960703;28;20213;-79
2022/02/01 07:50:02;;;;;;;12.73;2.70;;;;;;;5.29;100.00;101210.44;4958236;28;20499;-75
2022/02/01 07:52:28;;;;;;;13.73;2.80;;;;;;;4.96;100.00;101180.94;4979556;28;20473;-76
2022/02/01 07:54:53;;;;;;;22.33;3.90;;;;;;;4.74;100.00;101131.75;4983658;28;20445;-74
2022/02/01 07:57:19;;;;;;;17.70;3.43;;;;;;;4.88;100.00;101155.13;4960542;28;20217;-80
2022/02/01 07:59:44;;;;;;;11.83;3.20;;;;;;;4.98;100.00;101178.97;4989669;28;20273;-80
2022/02/01 08:02:18;;;;;;;10.10;3.40;;;;;;;4.90;100.00;101152.31;4987298;28;20185;-79
2022/02/01 08:04:45;;;;;;;8.37;3.43;;;;;;;4.39;100.00;101112.19;4981744;28;20184;-80
2022/02/01 08:07:10;;;;;;;10.60;3.33;;;;;;;4.87;100.00;101163.25;4983447;28;20536;-81
2022/02/01 08:09:39;;;;;;;11.53;3.60;;;;;;;4.84;100.00;101158.25;4984780;28;20605;-75
2022/02/01 08:17:34;;;;;;;8.00;2.87;;;;;;;4.71;100.00;101081.56;4985504;28;20463;-76
2022/02/01 08:22:38;;;;;;;13.70;3.40;;;;;;;5.01;100.00;101112.19;5007555;28;20498;-72
2022/02/01 08:25:04;;;;;;;13.10;3.43;;;;;;;4.96;100.00;101101.19;5017876;28;20868;-72
2022/02/01 08:27:31;;;;;;;10.13;3.00;;;;;;;4.46;100.00;101048.69;5018670;28;20443;-75
2022/02/01 08:29:58;;;;;;;9.00;3.10;;;;;;;4.12;100.00;100956.47;5011282;28;20454;-74
2022/02/01 08:32:23;;;;;;;7.47;3.57;;;;;;;4.79;100.00;101046.25;5017221;28;20454;-76
2022/02/01 08:34:49;;;;;;;8.43;3.30;;;;;;;4.82;100.00;101056.56;5014923;28;20462;-73
2022/02/01 08:37:14;;;;;;;7.80;2.90;;;;;;;5.12;100.00;101057.91;5020098;28;20189;-71
2022/02/01 08:39:40;;;;;;;10.13;3.40;;;;;;;4.81;100.00;100997.28;5016814;28;20220;-72
2022/02/01 08:42:05;;;;;;;7.77;3.43;;;;;;;3.86;100.00;100850.25;5017401;28;20567;-70
2022/02/01 08:44:31;;;;;;;9.10;3.00;;;;;;;4.88;100.00;101024.06;5017081;28;20196;-73
2022/02/01 08:46:57;;;;;;;7.93;3.17;;;;;;;4.69;100.00;100964.00;5017553;28;20271;-72
2022/02/01 08:49:23;;;;;;;7.80;2.77;;;;;;;5.13;100.00;101009.06;5018818;28;20242;-73
2022/02/01 08:51:58;;;;;;;13.97;3.60;;;;;;;3.49;100.00;100739.06;5015632;28;20464;-73
2022/02/01 08:54:26;;;;;;;8.13;2.90;;;;;;;5.04;100.00;101002.88;5017847;28;20500;-72
2022/02/01 08:59:38;;;;;;;6.03;3.80;;;;;;;4.79;100.00;100931.97;5019188;28;20448;-72
2022/02/01 09:02:05;;;;;;;8.60;3.87;;;;;;;4.69;100.00;100922.31;5018456;28;20978;-71
2022/02/01 09:04:31;;;;;;;6.27;4.23;;;;;;;5.22;100.00;100992.16;5017205;28;20831;-72
2022/02/01 09:06:58;;;;;;;6.13;3.67;;;;;;;5.25;100.00;100983.03;5017643;28;20435;-73
2022/02/01 09:09:23;;;;;;;7.63;4.00;;;;;;;4.62;100.00;100897.34;5015404;28;20503;-74
2022/02/01 09:11:50;;;;;;;4.43;3.50;;;;;;;4.40;100.00;100832.34;5018633;28;20830;-74
2022/02/01 09:14:16;;;;;;;5.13;3.90;;;;;;;5.26;100.00;100982.03;5020725;28;20188;-75
2022/02/01 09:16:42;;;;;;;6.33;4.10;;;;;;;4.86;100.00;100923.22;5017645;28;20446;-74
2022/02/01 09:19:08;;;;;;;4.10;3.70;;;;;;;5.38;100.00;100975.41;5014444;28;20466;-74
2022/02/01 09:21:34;;;;;;;4.10;3.63;;;;;;;4.53;100.00;100835.38;5017287;28;20212;-75
2022/02/01 09:23:59;;;;;;;4.57;3.00;;;;;;;5.41;100.00;100949.34;5012082;28;20462;-73
2022/02/01 09:26:25;;;;;;;3.93;3.03;;;;;;;4.82;100.00;100828.00;5017985;28;20184;-73
2022/02/01 09:28:51;;;;;;;4.30;3.10;;;;;;;5.30;100.00;100895.63;5017656;28;20184;-72
2022/02/01 09:31:17;;;;;;;4.70;3.10;;;;;;;5.38;100.00;100917.75;5016262;28;20676;-75
2022/02/01 09:33:43;;;;;;;4.23;2.87;;;;;;;5.39;100.00;100916.75;5015153;28;20489;-76
2022/02/01 09:36:09;;;;;;;2.83;2.33;;;;;;;5.11;100.00;100857.66;5017799;28;20529;-75
2022/02/01 09:38:35;;;;;;;3.47;2.40;;;;;;;5.54;100.00;100921.44;5015220;28;20870;-74
2022/02/01 09:41:02;;;;;;;3.43;2.10;;;;;;;5.56;100.00;100925.59;5013473;28;20212;-75
2022/02/01 09:43:28;;;;;;;2.83;2.63;;;;;;;5.51;100.00;100916.44;5017000;28;20541;-72
2022/02/01 09:45:55;;;;;;;2.37;2.17;;;;;;;5.72;100.00;100902.66;5019188;28;20517;-74
2022/02/01 09:48:21;;;;;;;2.20;2.10;;;;;;;5.68;100.00;100904.81;5017949;28;20279;-72
2022/02/01 09:50:47;;;;;;;2.30;2.20;;;;;;;5.69;100.00;100889.69;5020670;28;20458;-73
2022/02/01 09:53:12;;;;;;;2.33;2.10;;;;;;;3.65;100.00;100574.75;5019265;28;20653;-76
2022/02/01 09:55:37;;;;;;;3.10;2.07;;;;;;;4.94;100.00;100755.78;5018197;28;20498;-74
2022/02/01 09:58:03;;;;;;;2.17;1.90;;;;;;;5.33;100.00;100818.97;5017037;28;20184;-75
2022/02/01 10:00:36;;;;;;;2.10;2.00;;;;;;;5.34;100.00;100803.84;5022042;28;20623;-75
2022/02/01 10:03:03;;;;;;;2.13;2.00;;;;;;;5.74;100.00;100853.59;5021408;28;20193;-73
2022/02/01 10:05:29;;;;;;;1.73;1.63;;;;;;;5.17;100.00;100755.97;5021128;28;20427;-75
2022/02/01 10:07:56;;;;;;;1.93;1.83;;;;;;;5.84;100.00;100858.72;5006249;28;20501;-76
2022/02/01 10:10:25;;;;;;;2.20;2.00;;;;;;;5.87;100.00;100872.56;5019311;28;20209;-77
2022/02/01 10:13:13;;;;;;;2.47;2.27;;;;;;;5.68;100.00;100801.03;5019031;28;20466;-77
2022/02/01 10:15:40;;;;;;;2.80;1.77;;;;;;;6.07;100.00;100858.91;5019010;28;20481;-76
2022/02/01 10:18:08;;;;;;;2.00;1.90;;;;;;;5.69;100.00;100788.53;5019390;28;20522;-73
2022/02/01 10:20:42;;;;;;;1.70;1.60;;;;;;;6.01;100.00;100849.75;5016574;28;20502;-76
2022/02/01 10:23:25;;;;;;;1.90;1.43;;;;;;;5.92;100.00;100805.47;5020918;28;20932;-77
2022/02/01 10:26:02;;;;;;;1.10;1.00;;;;;;;5.74;100.00;100767.59;5019974;28;20486;-76
2022/02/01 10:31:33;;;;;;;1.77;1.20;;;;;;;6.18;100.00;100837.25;5019077;28;20507;-76
2022/02/01 10:36:51;;;;;;;1.73;1.13;;;;;;;6.25;100.00;100824.06;5016193;28;20447;-74
2022/02/01 10:39:22;;;;;;;1.70;1.37;;;;;;;6.35;100.00;100838.03;5018139;28;20498;-76
2022/02/01 10:42:04;;;;;;;1.50;0.97;;;;;;;6.31;100.00;100815.41;5019564;28;20447;-74
2022/02/01 10:44:57;;;;;;;1.40;0.90;;;;;;;6.42;100.00;100817.72;5020522;28;20431;-74
2022/02/01 10:47:52;;;;;;;3.23;1.30;;;;;;;6.44;100.00;100810.34;5016592;28;20983;-74
2022/02/01 10:50:18;;;;;;;2.30;1.33;;;;;;;6.11;100.00;100748.41;5003973;28;20982;-75
2022/02/01 10:52:49;;;;;;;1.27;1.17;;;;;;;6.50;100.00;100801.66;5015611;28;20478;-75
2022/02/01 10:55:18;;;;;;;1.70;1.10;;;;;;;6.55;100.00;100809.16;5016921;28;20257;-73
2022/02/01 10:57:44;;;;;;;0.90;0.70;;;;;;;6.57;100.00;100801.84;5016415;28;20440;-75
2022/02/01 11:00:14;;;;;;;2.80;0.90;;;;;;;6.63;100.00;100794.97;5019716;28;20447;-75
2022/02/01 11:02:44;;;;;;;2.00;1.17;;;;;;;5.97;100.00;100686.03;5021243;28;20443;-75
2022/02/01 11:05:15;;;;;;;0.97;0.80;;;;;;;6.66;100.00;100779.47;5005154;28;20538;-74
2022/02/01 11:07:41;;;;;;;2.73;0.87;;;;;;;6.71;100.00;100770.91;5016294;28;20447;-76
2022/02/01 11:10:11;;;;;;;1.40;0.70;;;;;;;6.71;100.00;100766.44;5001052;28;20451;-76
2022/02/01 11:12:39;;;;;;;0.80;0.60;;;;;;;6.23;100.00;100676.94;5001286;28;20681;-74
2022/02/01 11:15:21;;;;;;;1.90;1.00;;;;;;;6.78;100.00;100743.41;5020995;28;20454;-75
2022/02/01 11:17:50;;;;;;;1.20;0.70;;;;;;;6.83;100.00;100742.03;5020439;28;20517;-76
2022/02/01 11:20:31;;;;;;;1.77;0.80;;;;;;;6.61;100.00;100690.38;5021241;28;20451;-75
2022/02/01 11:23:03;;;;;;;1.10;0.67;;;;;;;6.90;100.00;100738.47;5017207;28;20435;-75
2022/02/01 11:25:44;;;;;;;3.70;1.00;;;;;;;6.74;100.00;100693.25;5019795;28;20444;-75
2022/02/01 11:28:32;;;;;;;3.20;1.13;;;;;;;6.97;100.00;100730.59;5016149;28;20545;-73
2022/02/01 11:30:58;;;;;;;7.80;1.80;;;;;;;6.71;100.00;100678.47;5012680;28;20515;-73
2022/02/01 11:33:36;;;;;;;6.83;1.90;;;;;;;7.08;100.00;100724.03;5015922;28;20439;-73
2022/02/01 11:36:06;;;;;;;9.90;3.57;;;;;;;6.33;100.00;100581.63;5019699;28;20434;-75
2022/02/01 11:38:32;;;;;;;13.63;2.70;;;;;;;7.16;100.00;100721.28;5021664;28;20419;-72
2022/02/01 11:41:06;;;;;;;12.77;2.43;;;;;;;6.74;100.00;100648.81;5018662;28;20451;-73
2022/02/01 11:43:32;;;;;;;13.50;2.53;;;;;;;7.22;100.00;100700.06;5004676;28;20438;-75
2022/02/01 11:46:02;;;;;;;13.30;3.23;;;;;;;6.97;100.00;100653.25;5021888;28;20773;-75
2022/02/01 11:48:29;;;;;;;16.17;3.73;;;;;;;7.09;100.00;100672.34;5021519;28;20578;-72
2022/02/01 11:50:57;;;;;;;15.77;3.70;;;;;;;7.32;100.00;100682.97;5017902;28;20464;-75
2022/02/01 11:53:31;;;;;;;17.20;3.50;;;;;;;5.44;100.00;100392.22;5022325;28;21153;-74
2022/02/01 11:55:58;;;;;;;23.50;3.73;;;;;;;7.37;100.00;100699.25;5019768;28;20463;-75
2022/02/01 11:58:35;;;;;;;19.63;4.00;;;;;;;7.08;100.00;100638.69;5013818;28;20443;-71
2022/02/01 12:01:05;;;;;;;23.37;4.70;;;;;;;7.40;100.00;100694.38;5013301;28;20459;-74
2022/02/01 12:03:38;;;;;;;16.93;3.97;;;;;;;7.39;100.00;100668.72;5004005;28;20482;-74
2022/02/01 12:06:09;;;;;;;21.23;3.50;;;;;;;7.39;100.00;100676.72;5014806;28;20434;-74
2022/02/01 12:08:38;;;;;;;22.73;5.13;;;;;;;7.39;100.00;100652.72;5015180;28;20438;-78
2022/02/01 12:11:07;;;;;;;22.33;3.83;;;;;;;7.35;100.00;100635.41;5011557;28;20877;-77
2022/02/01 12:13:35;;;;;;;23.40;4.30;;;;;;;7.24;100.00;100617.19;5012982;28;20534;-78
2022/02/01 12:16:05;;;;;;;22.03;4.20;;;;;;;7.04;100.00;100595.53;5005655;28;20443;-77
2022/02/01 12:19:00;;;;;;;22.93;4.00;;;;;;;7.25;100.00;100613.50;5005610;28;21754;-79
2022/02/01 12:21:29;;;;;;;18.47;3.63;;;;;;;7.43;100.00;100635.34;5014517;28;20461;-76
2022/02/01 12:24:14;;;;;;;27.60;5.30;;;;;;;7.45;100.00;100638.63;5013636;28;20486;-79
2022/02/01 12:26:41;;;;;;;22.43;4.43;;;;;;;7.47;100.00;100654.47;5005448;28;20447;-78
2022/02/01 12:29:12;;;;;;;20.40;4.20;;;;;;;7.50;100.00;100647.94;5000910;28;20442;-78
2022/02/01 12:31:40;;;;;;;25.70;4.50;;;;;;;7.36;100.00;100630.91;5001348;28;20458;-79
2022/02/01 12:34:11;;;;;;;23.00;3.93;;;;;;;7.32;100.00;100635.78;5000971;28;20955;-78
2022/02/01 12:36:50;;;;;;;20.63;3.60;;;;;;;7.62;100.00;100657.16;5017328;28;20520;-78
2022/02/01 12:42:14;;;;;;;14.17;3.70;;;;;;;7.63;100.00;100643.59;5021248;28;20520;-77
2022/02/01 12:47:21;;;;;;;25.77;4.40;;;;;;;7.73;100.00;100623.84;5016874;28;20946;-84
2022/02/01 12:49:52;;;;;;;21.23;3.60;;;;;;;7.77;100.00;100631.28;4999632;28;20442;-73
2022/02/01 12:52:19;;;;;;;23.30;4.73;;;;;;;7.65;100.00;100608.72;5017480;28;20474;-76
2022/02/01 12:54:45;;;;;;;27.97;4.70;;;;;;;7.33;100.00;100565.41;5018101;28;20445;-77
2022/02/01 12:57:18;;;;;;;14.50;3.90;;;;;;;7.83;100.00;100616.34;5017969;28;20444;-77
2022/02/01 12:59:52;;;;;;;18.93;3.83;;;;;;;7.63;100.00;100595.56;5017923;28;20275;-79
2022/02/01 13:02:25;;;;;;;21.70;4.50;;;;;;;7.85;100.00;100623.16;5015800;28;21001;-79
2022/02/01 13:05:00;;;;;;;17.77;4.20;;;;;;;7.89;100.00;100608.41;5013709;28;20521;-78
2022/02/01 13:07:57;;;;;;;31.40;5.87;;;;;;;7.88;100.00;100606.78;5017495;28;20446;-77
2022/02/01 13:21:01;;;;;;;20.10;3.63;;;;;;;7.99;100.00;100607.31;5016764;28;20459;-79
2022/02/01 13:23:37;;;;;;;21.50;3.53;;;;;;;8.06;100.00;100606.34;5020009;28;20481;-79
2022/02/01 13:26:07;;;;;;;22.40;4.03;;;;;;;8.10;100.00;100598.78;5022342;28;20462;-77
2022/02/01 13:28:33;;;;;;;17.03;3.70;;;;;;;7.16;100.00;100447.38;5000616;28;20445;-77
2022/02/01 13:31:06;;;;;;;20.30;3.60;;;;;;;8.10;100.00;100618.34;5018954;28;20565;-77
2022/02/01 13:33:32;;;;;;;27.23;4.03;;;;;;;8.10;100.00;100607.66;5023081;28;20431;-76
2022/02/01 13:35:57;;;;;;;20.60;3.70;;;;;;;8.06;100.00;100590.34;5021606;28;20458;-77
2022/02/01 13:38:28;;;;;;;17.97;3.60;;;;;;;7.74;100.00;100556.88;5022604;28;20188;-78
2022/02/01 13:40:54;;;;;;;16.90;3.20;;;;;;;7.83;100.00;100577.13;5022612;28;20200;-77
2022/02/01 13:43:29;;;;;;;16.87;3.97;;;;;;;8.02;100.00;100606.94;5020331;28;20463;-78
2022/02/01 13:45:55;;;;;;;29.60;4.03;;;;;;;7.75;100.00;100571.88;5020766;28;20926;-79
2022/02/01 13:48:24;;;;;;;26.07;5.33;;;;;;;7.84;100.00;100564.59;5020123;28;20430;-78
2022/02/01 13:50:50;;;;;;;19.73;4.23;;;;;;;7.99;100.00;100594.78;5007969;28;20547;-77
2022/02/01 13:53:17;;;;;;;29.47;5.10;;;;;;;6.56;100.00;100371.94;5024064;28;20419;-76
2022/02/01 13:55:44;;;;;;;21.43;4.90;;;;;;;7.30;100.00;100469.72;5018106;28;20444;-76